sensor_id;sensor_type;location;lat;lon;timestamp;P1;durP1;ratioP1;P2;durP2;ratioP2
37305;SDS011;23193;42.656;21.170;2023-02-15T00:01:06;52.15;;;26.42;;
37305;SDS011;23193;42.656;21.170;2023-02-15T00:03:32;60.10;;;29.58;;
37305;SDS011;23193;42.656;21.170;2023-02-15T00:05:58;55.30;;;29.95;;
37305;SDS011;23193;42.656;21.170;2023-02-15T00:08:24;55.92;;;30.08;;
37305;SDS011;23193;42.656;21.170;2023-02-15T00:10:50;49.03;;;25.67;;
37305;SDS011;23193;42.656;21.170;2023-02-15T00:13:17;58.72;;;30.77;;
37305;SDS011;23193;42.656;21.170;2023-02-15T00:15:43;43.90;;;22.80;;
37305;SDS011;23193;42.656;21.170;2023-02-15T00:18:09;57.08;;;29.83;;
37305;SDS011;23193;42.656;21.170;2023-02-15T00:20:35;49.10;;;28.10;;
37305;SDS011;23193;42.656;21.170;2023-02-15T00:23:01;64.70;;;31.58;;
37305;SDS011;23193;42.656;21.170;2023-02-15T00:25:27;59.45;;;28.30;;
37305;SDS011;23193;42.656;21.170;2023-02-15T00:27:53;50.13;;;28.05;;
37305;SDS011;23193;42.656;21.170;2023-02-15T00:30:19;50.60;;;25.42;;
37305;SDS011;23193;42.656;21.170;2023-02-15T00:32:47;42.95;;;23.88;;
37305;SDS011;23193;42.656;21.170;2023-02-15T00:35:13;52.50;;;26.23;;
37305;SDS011;23193;42.656;21.170;2023-02-15T00:37:39;45.10;;;23.02;;
37305;SDS011;23193;42.656;21.170;2023-02-15T00:40:05;45.15;;;23.60;;
37305;SDS011;23193;42.656;21.170;2023-02-15T00:42:31;38.80;;;21.33;;
37305;SDS011;23193;42.656;21.170;2023-02-15T00:44:57;37.30;;;20.15;;
37305;SDS011;23193;42.656;21.170;2023-02-15T00:47:23;50.45;;;24.92;;
37305;SDS011;23193;42.656;21.170;2023-02-15T00:49:50;56.15;;;29.25;;
37305;SDS011;23193;42.656;21.170;2023-02-15T00:52:16;53.42;;;26.10;;
37305;SDS011;23193;42.656;21.170;2023-02-15T00:54:42;64.97;;;30.10;;
37305;SDS011;23193;42.656;21.170;2023-02-15T00:57:08;51.85;;;25.92;;
37305;SDS011;23193;42.656;21.170;2023-02-15T00:59:34;43.97;;;22.23;;
37305;SDS011;23193;42.656;21.170;2023-02-15T01:02:00;41.38;;;22.52;;
37305;SDS011;23193;42.656;21.170;2023-02-15T01:04:26;48.22;;;25.30;;
37305;SDS011;23193;42.656;21.170;2023-02-15T01:06:52;49.85;;;25.00;;
37305;SDS011;23193;42.656;21.170;2023-02-15T01:09:18;67.35;;;30.50;;
37305;SDS011;23193;42.656;21.170;2023-02-15T01:11:44;46.35;;;23.95;;
37305;SDS011;23193;42.656;21.170;2023-02-15T01:14:10;48.30;;;26.10;;
37305;SDS011;23193;42.656;21.170;2023-02-15T01:16:38;57.42;;;28.70;;
37305;SDS011;23193;42.656;21.170;2023-02-15T01:19:04;63.22;;;30.30;;
37305;SDS011;23193;42.656;21.170;2023-02-15T01:21:31;42.78;;;22.70;;
37305;SDS011;23193;42.656;21.170;2023-02-15T01:23:59;57.28;;;27.10;;
37305;SDS011;23193;42.656;21.170;2023-02-15T01:26:25;50.67;;;26.77;;
37305;SDS011;23193;42.656;21.170;2023-02-15T01:28:52;47.03;;;23.58;;
37305;SDS011;23193;42.656;21.170;2023-02-15T01:31:19;35.50;;;19.90;;
37305;SDS011;23193;42.656;21.170;2023-02-15T01:33:46;50.03;;;26.90;;
37305;SDS011;23193;42.656;21.170;2023-02-15T01:36:12;44.50;;;22.05;;
37305;SDS011;23193;42.656;21.170;2023-02-15T01:38:39;40.22;;;20.75;;
37305;SDS011;23193;42.656;21.170;2023-02-15T01:41:05;39.50;;;20.98;;
37305;SDS011;23193;42.656;21.170;2023-02-15T01:46:22;49.53;;;21.92;;
37305;SDS011;23193;42.656;21.170;2023-02-15T01:49:03;64.93;;;32.40;;
37305;SDS011;23193;42.656;21.170;2023-02-15T01:51:31;92.22;;;44.20;;
37305;SDS011;23193;42.656;21.170;2023-02-15T01:54:01;207.85;;;92.20;;
37305;SDS011;23193;42.656;21.170;2023-02-15T01:56:29;137.90;;;62.03;;
37305;SDS011;23193;42.656;21.170;2023-02-15T01:58:57;83.28;;;39.65;;
37305;SDS011;23193;42.656;21.170;2023-02-15T02:01:24;73.00;;;36.33;;
37305;SDS011;23193;42.656;21.170;2023-02-15T02:06:20;70.50;;;35.80;;
37305;SDS011;23193;42.656;21.170;2023-02-15T02:08:46;74.88;;;36.40;;
37305;SDS011;23193;42.656;21.170;2023-02-15T02:11:13;83.15;;;41.33;;
37305;SDS011;23193;42.656;21.170;2023-02-15T02:13:40;106.93;;;48.67;;
37305;SDS011;23193;42.656;21.170;2023-02-15T02:34:55;63.42;;;32.13;;
37305;SDS011;23193;42.656;21.170;2023-02-15T02:37:30;47.70;;;26.27;;
37305;SDS011;23193;42.656;21.170;2023-02-15T02:42:36;53.10;;;26.17;;
37305;SDS011;23193;42.656;21.170;2023-02-15T02:47:35;47.03;;;25.15;;
37305;SDS011;23193;42.656;21.170;2023-02-15T02:50:06;36.83;;;20.30;;
37305;SDS011;23193;42.656;21.170;2023-02-15T02:52:46;40.67;;;21.15;;
37305;SDS011;23193;42.656;21.170;2023-02-15T02:55:15;40.88;;;20.33;;
37305;SDS011;23193;42.656;21.170;2023-02-15T02:57:44;40.15;;;20.40;;
37305;SDS011;23193;42.656;21.170;2023-02-15T03:00:12;40.27;;;20.67;;
37305;SDS011;23193;42.656;21.170;2023-02-15T03:02:41;39.70;;;20.70;;
37305;SDS011;23193;42.656;21.170;2023-02-15T03:05:09;44.25;;;21.73;;
37305;SDS011;23193;42.656;21.170;2023-02-15T03:07:37;36.63;;;19.30;;
37305;SDS011;23193;42.656;21.170;2023-02-15T03:10:04;35.03;;;18.23;;
37305;SDS011;23193;42.656;21.170;2023-02-15T03:12:32;37.30;;;20.48;;
37305;SDS011;23193;42.656;21.170;2023-02-15T03:15:00;38.13;;;20.88;;
37305;SDS011;23193;42.656;21.170;2023-02-15T03:17:28;34.88;;;20.17;;
37305;SDS011;23193;42.656;21.170;2023-02-15T03:19:57;42.10;;;20.35;;
37305;SDS011;23193;42.656;21.170;2023-02-15T03:22:25;37.13;;;18.88;;
37305;SDS011;23193;42.656;21.170;2023-02-15T03:27:21;49.35;;;24.65;;
37305;SDS011;23193;42.656;21.170;2023-02-15T03:29:49;40.75;;;21.65;;
37305;SDS011;23193;42.656;21.170;2023-02-15T03:32:16;36.88;;;18.73;;
37305;SDS011;23193;42.656;21.170;2023-02-15T03:34:43;44.30;;;21.75;;
37305;SDS011;23193;42.656;21.170;2023-02-15T03:37:29;57.03;;;26.23;;
37305;SDS011;23193;42.656;21.170;2023-02-15T03:40:03;43.58;;;20.02;;
37305;SDS011;23193;42.656;21.170;2023-02-15T03:42:49;42.55;;;21.40;;
37305;SDS011;23193;42.656;21.170;2023-02-15T03:45:17;35.15;;;17.88;;
37305;SDS011;23193;42.656;21.170;2023-02-15T03:47:48;39.20;;;20.48;;
37305;SDS011;23193;42.656;21.170;2023-02-15T03:50:20;35.92;;;19.85;;
37305;SDS011;23193;42.656;21.170;2023-02-15T03:53:06;40.80;;;20.98;;
37305;SDS011;23193;42.656;21.170;2023-02-15T03:55:34;43.55;;;22.27;;
37305;SDS011;23193;42.656;21.170;2023-02-15T03:58:00;36.25;;;18.73;;
37305;SDS011;23193;42.656;21.170;2023-02-15T04:00:51;38.28;;;20.27;;
37305;SDS011;23193;42.656;21.170;2023-02-15T04:03:39;39.88;;;19.08;;
37305;SDS011;23193;42.656;21.170;2023-02-15T04:06:06;41.60;;;20.77;;
37305;SDS011;23193;42.656;21.170;2023-02-15T04:08:32;35.50;;;19.13;;
37305;SDS011;23193;42.656;21.170;2023-02-15T04:11:17;34.47;;;18.90;;
37305;SDS011;23193;42.656;21.170;2023-02-15T04:13:43;37.20;;;18.58;;
37305;SDS011;23193;42.656;21.170;2023-02-15T04:16:09;46.00;;;21.52;;
37305;SDS011;23193;42.656;21.170;2023-02-15T04:18:36;45.10;;;20.92;;
37305;SDS011;23193;42.656;21.170;2023-02-15T04:21:22;43.42;;;22.67;;
37305;SDS011;23193;42.656;21.170;2023-02-15T04:24:07;54.67;;;24.63;;
37305;SDS011;23193;42.656;21.170;2023-02-15T04:26:52;68.70;;;29.98;;
37305;SDS011;23193;42.656;21.170;2023-02-15T04:29:18;51.80;;;24.05;;
37305;SDS011;23193;42.656;21.170;2023-02-15T04:31:44;45.83;;;22.13;;
37305;SDS011;23193;42.656;21.170;2023-02-15T04:34:10;40.30;;;21.20;;
37305;SDS011;23193;42.656;21.170;2023-02-15T04:36:37;44.83;;;22.08;;
37305;SDS011;23193;42.656;21.170;2023-02-15T04:39:03;42.90;;;21.25;;
37305;SDS011;23193;42.656;21.170;2023-02-15T04:41:29;34.78;;;18.83;;
37305;SDS011;23193;42.656;21.170;2023-02-15T04:43:55;41.08;;;20.80;;
37305;SDS011;23193;42.656;21.170;2023-02-15T04:46:22;41.45;;;19.42;;
37305;SDS011;23193;42.656;21.170;2023-02-15T04:48:48;38.35;;;20.15;;
37305;SDS011;23193;42.656;21.170;2023-02-15T04:51:14;36.78;;;20.05;;
37305;SDS011;23193;42.656;21.170;2023-02-15T04:53:40;43.63;;;22.70;;
37305;SDS011;23193;42.656;21.170;2023-02-15T04:56:06;36.40;;;19.55;;
37305;SDS011;23193;42.656;21.170;2023-02-15T04:58:33;42.95;;;22.35;;
37305;SDS011;23193;42.656;21.170;2023-02-15T05:01:00;44.65;;;23.08;;
37305;SDS011;23193;42.656;21.170;2023-02-15T05:03:26;51.60;;;22.85;;
37305;SDS011;23193;42.656;21.170;2023-02-15T05:05:52;43.15;;;22.10;;
37305;SDS011;23193;42.656;21.170;2023-02-15T05:08:18;44.55;;;23.10;;
37305;SDS011;23193;42.656;21.170;2023-02-15T05:10:44;40.75;;;21.88;;
37305;SDS011;23193;42.656;21.170;2023-02-15T05:13:10;43.95;;;23.40;;
37305;SDS011;23193;42.656;21.170;2023-02-15T05:15:36;39.55;;;22.58;;
37305;SDS011;23193;42.656;21.170;2023-02-15T05:18:02;43.60;;;23.85;;
37305;SDS011;23193;42.656;21.170;2023-02-15T05:20:30;44.00;;;22.58;;
37305;SDS011;23193;42.656;21.170;2023-02-15T05:22:56;43.75;;;21.83;;
37305;SDS011;23193;42.656;21.170;2023-02-15T05:25:22;39.78;;;20.73;;
37305;SDS011;23193;42.656;21.170;2023-02-15T05:28:08;46.03;;;23.50;;
37305;SDS011;23193;42.656;21.170;2023-02-15T05:30:45;42.30;;;21.10;;
37305;SDS011;23193;42.656;21.170;2023-02-15T05:33:11;41.97;;;21.23;;
37305;SDS011;23193;42.656;21.170;2023-02-15T05:35:37;44.83;;;21.42;;
37305;SDS011;23193;42.656;21.170;2023-02-15T05:38:03;40.53;;;21.67;;
37305;SDS011;23193;42.656;21.170;2023-02-15T05:40:29;38.40;;;20.08;;
37305;SDS011;23193;42.656;21.170;2023-02-15T05:42:55;44.78;;;21.45;;
37305;SDS011;23193;42.656;21.170;2023-02-15T05:45:21;48.50;;;23.83;;
37305;SDS011;23193;42.656;21.170;2023-02-15T05:47:48;58.90;;;25.90;;
37305;SDS011;23193;42.656;21.170;2023-02-15T05:50:14;57.33;;;28.10;;
37305;SDS011;23193;42.656;21.170;2023-02-15T05:52:40;94.25;;;40.78;;
37305;SDS011;23193;42.656;21.170;2023-02-15T05:55:06;82.95;;;38.70;;
37305;SDS011;23193;42.656;21.170;2023-02-15T05:57:33;63.83;;;31.63;;
37305;SDS011;23193;42.656;21.170;2023-02-15T06:00:00;69.55;;;33.03;;
37305;SDS011;23193;42.656;21.170;2023-02-15T06:02:26;58.45;;;31.00;;
37305;SDS011;23193;42.656;21.170;2023-02-15T06:04:52;82.88;;;37.95;;
37305;SDS011;23193;42.656;21.170;2023-02-15T06:07:18;80.07;;;34.13;;
37305;SDS011;23193;42.656;21.170;2023-02-15T06:09:44;97.35;;;40.95;;
37305;SDS011;23193;42.656;21.170;2023-02-15T06:12:10;104.38;;;41.90;;
37305;SDS011;23193;42.656;21.170;2023-02-15T06:14:36;252.82;;;123.80;;
37305;SDS011;23193;42.656;21.170;2023-02-15T06:17:02;307.15;;;156.00;;
37305;SDS011;23193;42.656;21.170;2023-02-15T06:19:28;132.23;;;56.95;;
37305;SDS011;23193;42.656;21.170;2023-02-15T06:21:54;418.98;;;229.50;;
37305;SDS011;23193;42.656;21.170;2023-02-15T06:24:20;331.13;;;169.45;;
37305;SDS011;23193;42.656;21.170;2023-02-15T06:26:46;152.30;;;70.78;;
37305;SDS011;23193;42.656;21.170;2023-02-15T06:29:12;87.53;;;45.05;;
37305;SDS011;23193;42.656;21.170;2023-02-15T06:31:38;64.40;;;31.73;;
37305;SDS011;23193;42.656;21.170;2023-02-15T06:34:04;76.13;;;42.60;;
37305;SDS011;23193;42.656;21.170;2023-02-15T06:36:31;75.63;;;38.03;;
37305;SDS011;23193;42.656;21.170;2023-02-15T06:38:57;59.72;;;31.85;;
37305;SDS011;23193;42.656;21.170;2023-02-15T06:41:23;68.05;;;32.28;;
37305;SDS011;23193;42.656;21.170;2023-02-15T06:43:50;63.22;;;32.75;;
37305;SDS011;23193;42.656;21.170;2023-02-15T06:46:16;1302.32;;;665.38;;
37305;SDS011;23193;42.656;21.170;2023-02-15T06:48:42;1999.90;;;999.90;;
37305;SDS011;23193;42.656;21.170;2023-02-15T06:51:08;1999.90;;;999.90;;
37305;SDS011;23193;42.656;21.170;2023-02-15T06:53:34;919.10;;;412.02;;
37305;SDS011;23193;42.656;21.170;2023-02-15T06:56:04;327.50;;;189.35;;
37305;SDS011;23193;42.656;21.170;2023-02-15T06:58:34;79.53;;;37.70;;
37305;SDS011;23193;42.656;21.170;2023-02-15T07:01:01;65.78;;;31.50;;
37305;SDS011;23193;42.656;21.170;2023-02-15T07:03:27;61.00;;;28.67;;
37305;SDS011;23193;42.656;21.170;2023-02-15T07:05:56;63.33;;;28.40;;
37305;SDS011;23193;42.656;21.170;2023-02-15T07:08:23;60.80;;;28.65;;
37305;SDS011;23193;42.656;21.170;2023-02-15T07:10:50;90.43;;;44.25;;
37305;SDS011;23193;42.656;21.170;2023-02-15T07:13:16;79.57;;;36.53;;
37305;SDS011;23193;42.656;21.170;2023-02-15T07:15:43;61.70;;;30.75;;
37305;SDS011;23193;42.656;21.170;2023-02-15T07:18:09;84.68;;;40.28;;
37305;SDS011;23193;42.656;21.170;2023-02-15T07:20:35;133.30;;;58.55;;
37305;SDS011;23193;42.656;21.170;2023-02-15T07:23:02;307.55;;;144.60;;
37305;SDS011;23193;42.656;21.170;2023-02-15T07:25:28;295.05;;;144.10;;
37305;SDS011;23193;42.656;21.170;2023-02-15T07:27:58;552.75;;;302.17;;
37305;SDS011;23193;42.656;21.170;2023-02-15T07:30:24;349.73;;;164.93;;
37305;SDS011;23193;42.656;21.170;2023-02-15T07:32:54;219.48;;;106.68;;
37305;SDS011;23193;42.656;21.170;2023-02-15T07:35:45;139.68;;;70.10;;
37305;SDS011;23193;42.656;21.170;2023-02-15T07:38:11;86.60;;;40.85;;
37305;SDS011;23193;42.656;21.170;2023-02-15T07:40:38;82.20;;;39.85;;
37305;SDS011;23193;42.656;21.170;2023-02-15T07:43:05;72.10;;;31.77;;
37305;SDS011;23193;42.656;21.170;2023-02-15T07:45:31;72.32;;;31.55;;
37305;SDS011;23193;42.656;21.170;2023-02-15T07:47:57;93.35;;;46.42;;
37305;SDS011;23193;42.656;21.170;2023-02-15T07:50:23;116.63;;;75.40;;
37305;SDS011;23193;42.656;21.170;2023-02-15T07:52:49;364.27;;;173.55;;
37305;SDS011;23193;42.656;21.170;2023-02-15T07:55:15;752.03;;;364.30;;
37305;SDS011;23193;42.656;21.170;2023-02-15T07:57:45;773.70;;;417.27;;
37305;SDS011;23193;42.656;21.170;2023-02-15T08:00:12;470.95;;;199.80;;
37305;SDS011;23193;42.656;21.170;2023-02-15T08:02:39;137.38;;;61.55;;
37305;SDS011;23193;42.656;21.170;2023-02-15T08:05:05;51.20;;;26.45;;
37305;SDS011;23193;42.656;21.170;2023-02-15T08:07:31;61.33;;;32.03;;
37305;SDS011;23193;42.656;21.170;2023-02-15T08:09:58;68.35;;;36.17;;
37305;SDS011;23193;42.656;21.170;2023-02-15T08:12:27;65.22;;;31.88;;
37305;SDS011;23193;42.656;21.170;2023-02-15T08:14:53;65.00;;;33.63;;
37305;SDS011;23193;42.656;21.170;2023-02-15T08:17:19;76.85;;;38.03;;
37305;SDS011;23193;42.656;21.170;2023-02-15T08:19:45;75.13;;;38.03;;
37305;SDS011;23193;42.656;21.170;2023-02-15T08:22:12;62.50;;;31.33;;
37305;SDS011;23193;42.656;21.170;2023-02-15T08:24:39;98.50;;;50.92;;
37305;SDS011;23193;42.656;21.170;2023-02-15T08:27:06;1111.47;;;514.35;;
37305;SDS011;23193;42.656;21.170;2023-02-15T08:29:33;741.13;;;379.33;;
37305;SDS011;23193;42.656;21.170;2023-02-15T08:32:03;603.63;;;307.75;;
37305;SDS011;23193;42.656;21.170;2023-02-15T08:34:31;64.78;;;29.33;;
37305;SDS011;23193;42.656;21.170;2023-02-15T08:36:58;58.42;;;29.65;;
37305;SDS011;23193;42.656;21.170;2023-02-15T08:39:24;60.92;;;30.35;;
37305;SDS011;23193;42.656;21.170;2023-02-15T08:41:50;54.70;;;28.35;;
37305;SDS011;23193;42.656;21.170;2023-02-15T08:44:17;57.88;;;26.60;;
37305;SDS011;23193;42.656;21.170;2023-02-15T08:46:44;54.10;;;24.88;;
37305;SDS011;23193;42.656;21.170;2023-02-15T08:49:12;55.67;;;27.27;;
37305;SDS011;23193;42.656;21.170;2023-02-15T08:51:38;41.50;;;22.38;;
37305;SDS011;23193;42.656;21.170;2023-02-15T08:54:06;39.42;;;21.73;;
37305;SDS011;23193;42.656;21.170;2023-02-15T08:56:33;42.47;;;20.70;;
37305;SDS011;23193;42.656;21.170;2023-02-15T08:59:00;35.13;;;19.42;;
37305;SDS011;23193;42.656;21.170;2023-02-15T09:01:27;41.15;;;20.63;;
37305;SDS011;23193;42.656;21.170;2023-02-15T09:04:00;71.85;;;35.22;;
37305;SDS011;23193;42.656;21.170;2023-02-15T09:06:27;37.00;;;21.50;;
37305;SDS011;23193;42.656;21.170;2023-02-15T09:08:54;52.90;;;26.35;;
37305;SDS011;23193;42.656;21.170;2023-02-15T09:11:21;61.88;;;30.92;;
37305;SDS011;23193;42.656;21.170;2023-02-15T09:14:00;73.28;;;29.83;;
37305;SDS011;23193;42.656;21.170;2023-02-15T09:16:28;63.22;;;30.70;;
37305;SDS011;23193;42.656;21.170;2023-02-15T09:18:54;58.35;;;29.05;;
37305;SDS011;23193;42.656;21.170;2023-02-15T09:21:23;46.90;;;22.70;;
37305;SDS011;23193;42.656;21.170;2023-02-15T09:23:50;42.33;;;23.27;;
37305;SDS011;23193;42.656;21.170;2023-02-15T09:26:17;46.53;;;25.52;;
37305;SDS011;23193;42.656;21.170;2023-02-15T09:28:43;59.80;;;30.88;;
37305;SDS011;23193;42.656;21.170;2023-02-15T09:31:11;50.10;;;29.35;;
37305;SDS011;23193;42.656;21.170;2023-02-15T09:33:38;44.45;;;26.08;;
37305;SDS011;23193;42.656;21.170;2023-02-15T09:36:05;34.88;;;18.70;;
37305;SDS011;23193;42.656;21.170;2023-02-15T09:38:31;58.60;;;28.65;;
37305;SDS011;23193;42.656;21.170;2023-02-15T09:43:29;56.08;;;29.77;;
37305;SDS011;23193;42.656;21.170;2023-02-15T09:46:05;52.25;;;25.90;;
37305;SDS011;23193;42.656;21.170;2023-02-15T09:48:39;46.85;;;23.45;;
37305;SDS011;23193;42.656;21.170;2023-02-15T09:56:47;30.83;;;18.95;;
37305;SDS011;23193;42.656;21.170;2023-02-15T10:01:57;31.92;;;18.92;;
37305;SDS011;23193;42.656;21.170;2023-02-15T10:14:44;32.17;;;18.42;;
37305;SDS011;23193;42.656;21.170;2023-02-15T10:27:05;41.10;;;22.00;;
37305;SDS011;23193;42.656;21.170;2023-02-15T10:29:35;43.30;;;23.00;;
37305;SDS011;23193;42.656;21.170;2023-02-15T10:32:44;28.48;;;16.77;;
37305;SDS011;23193;42.656;21.170;2023-02-15T10:34:51;34.00;;;18.25;;
37305;SDS011;23193;42.656;21.170;2023-02-15T10:37:25;31.30;;;18.10;;
37305;SDS011;23193;42.656;21.170;2023-02-15T10:42:51;86.88;;;34.55;;
37305;SDS011;23193;42.656;21.170;2023-02-15T10:45:23;45.78;;;24.65;;
37305;SDS011;23193;42.656;21.170;2023-02-15T11:00:38;50.95;;;24.02;;
37305;SDS011;23193;42.656;21.170;2023-02-15T11:08:14;45.85;;;25.83;;
37305;SDS011;23193;42.656;21.170;2023-02-15T11:13:16;39.90;;;23.05;;
37305;SDS011;23193;42.656;21.170;2023-02-15T11:15:44;45.30;;;25.43;;
37305;SDS011;23193;42.656;21.170;2023-02-15T11:21:13;42.97;;;23.95;;
37305;SDS011;23193;42.656;21.170;2023-02-15T11:23:44;46.47;;;23.90;;
37305;SDS011;23193;42.656;21.170;2023-02-15T11:26:15;43.03;;;24.38;;
37305;SDS011;23193;42.656;21.170;2023-02-15T11:28:45;39.65;;;23.02;;
37305;SDS011;23193;42.656;21.170;2023-02-15T11:31:15;42.22;;;21.58;;
37305;SDS011;23193;42.656;21.170;2023-02-15T11:33:44;40.05;;;22.63;;
37305;SDS011;23193;42.656;21.170;2023-02-15T11:36:13;77.15;;;41.60;;
37305;SDS011;23193;42.656;21.170;2023-02-15T11:38:42;105.47;;;55.90;;
37305;SDS011;23193;42.656;21.170;2023-02-15T11:41:13;49.47;;;26.33;;
37305;SDS011;23193;42.656;21.170;2023-02-15T11:43:46;42.42;;;24.35;;
37305;SDS011;23193;42.656;21.170;2023-02-15T11:46:14;38.65;;;20.67;;
37305;SDS011;23193;42.656;21.170;2023-02-15T11:48:40;29.88;;;16.33;;
37305;SDS011;23193;42.656;21.170;2023-02-15T11:51:17;31.50;;;18.10;;
37305;SDS011;23193;42.656;21.170;2023-02-15T11:53:44;37.40;;;23.55;;
37305;SDS011;23193;42.656;21.170;2023-02-15T11:56:14;44.10;;;26.08;;
37305;SDS011;23193;42.656;21.170;2023-02-15T11:58:48;40.47;;;21.17;;
37305;SDS011;23193;42.656;21.170;2023-02-15T12:03:50;64.20;;;34.95;;
37305;SDS011;23193;42.656;21.170;2023-02-15T12:06:27;47.88;;;23.63;;
37305;SDS011;23193;42.656;21.170;2023-02-15T12:11:36;36.35;;;20.23;;
37305;SDS011;23193;42.656;21.170;2023-02-15T12:14:04;43.88;;;24.30;;
37305;SDS011;23193;42.656;21.170;2023-02-15T12:16:32;31.55;;;18.83;;
37305;SDS011;23193;42.656;21.170;2023-02-15T12:19:00;34.67;;;18.92;;
37305;SDS011;23193;42.656;21.170;2023-02-15T12:21:28;35.28;;;19.92;;
37305;SDS011;23193;42.656;21.170;2023-02-15T12:24:17;52.28;;;31.88;;
37305;SDS011;23193;42.656;21.170;2023-02-15T12:26:44;75.15;;;42.65;;
37305;SDS011;23193;42.656;21.170;2023-02-15T12:29:21;40.78;;;25.05;;
37305;SDS011;23193;42.656;21.170;2023-02-15T12:31:49;41.97;;;22.25;;
37305;SDS011;23193;42.656;21.170;2023-02-15T12:36:51;27.27;;;16.88;;
37305;SDS011;23193;42.656;21.170;2023-02-15T12:39:25;36.95;;;21.15;;
37305;SDS011;23193;42.656;21.170;2023-02-15T12:44:22;41.78;;;22.10;;
37305;SDS011;23193;42.656;21.170;2023-02-15T12:46:57;45.13;;;23.08;;
37305;SDS011;23193;42.656;21.170;2023-02-15T12:49:24;40.47;;;21.30;;
37305;SDS011;23193;42.656;21.170;2023-02-15T12:51:52;44.53;;;23.80;;
37305;SDS011;23193;42.656;21.170;2023-02-15T12:56:50;41.50;;;21.88;;
37305;SDS011;23193;42.656;21.170;2023-02-15T12:59:17;41.88;;;23.48;;
37305;SDS011;23193;42.656;21.170;2023-02-15T13:01:47;45.90;;;21.40;;
37305;SDS011;23193;42.656;21.170;2023-02-15T13:04:24;34.47;;;18.92;;
37305;SDS011;23193;42.656;21.170;2023-02-15T13:06:51;36.80;;;20.15;;
37305;SDS011;23193;42.656;21.170;2023-02-15T13:09:19;49.47;;;22.38;;
37305;SDS011;23193;42.656;21.170;2023-02-15T13:11:46;46.53;;;26.08;;
37305;SDS011;23193;42.656;21.170;2023-02-15T13:14:19;63.80;;;29.92;;
37305;SDS011;23193;42.656;21.170;2023-02-15T13:16:47;65.90;;;32.60;;
37305;SDS011;23193;42.656;21.170;2023-02-15T13:19:57;52.72;;;28.45;;
37305;SDS011;23193;42.656;21.170;2023-02-15T13:22:05;152.63;;;87.47;;
37305;SDS011;23193;42.656;21.170;2023-02-15T13:24:43;86.72;;;41.50;;
37305;SDS011;23193;42.656;21.170;2023-02-15T13:27:14;666.95;;;292.58;;
37305;SDS011;23193;42.656;21.170;2023-02-15T13:29:46;530.90;;;206.43;;
37305;SDS011;23193;42.656;21.170;2023-02-15T13:35:16;38.78;;;20.15;;
37305;SDS011;23193;42.656;21.170;2023-02-15T13:37:45;187.85;;;98.93;;
37305;SDS011;23193;42.656;21.170;2023-02-15T13:40:15;37.83;;;22.92;;
37305;SDS011;23193;42.656;21.170;2023-02-15T13:42:45;52.03;;;27.85;;
37305;SDS011;23193;42.656;21.170;2023-02-15T14:06:00;42.40;;;24.30;;
37305;SDS011;23193;42.656;21.170;2023-02-15T14:11:05;32.20;;;19.05;;
37305;SDS011;23193;42.656;21.170;2023-02-15T14:18:26;85.47;;;44.75;;
37305;SDS011;23193;42.656;21.170;2023-02-15T14:26:08;213.65;;;108.88;;
37305;SDS011;23193;42.656;21.170;2023-02-15T14:31:11;135.02;;;61.67;;
37305;SDS011;23193;42.656;21.170;2023-02-15T14:33:40;62.53;;;34.05;;
37305;SDS011;23193;42.656;21.170;2023-02-15T14:36:08;69.68;;;38.22;;
37305;SDS011;23193;42.656;21.170;2023-02-15T14:48:53;71.65;;;36.38;;
37305;SDS011;23193;42.656;21.170;2023-02-15T14:51:53;50.83;;;29.05;;
37305;SDS011;23193;42.656;21.170;2023-02-15T14:56:45;127.82;;;82.38;;
37305;SDS011;23193;42.656;21.170;2023-02-15T15:01:37;326.85;;;142.52;;
37305;SDS011;23193;42.656;21.170;2023-02-15T15:04:14;1257.50;;;641.58;;
37305;SDS011;23193;42.656;21.170;2023-02-15T15:06:57;1876.30;;;868.65;;
37305;SDS011;23193;42.656;21.170;2023-02-15T15:09:25;1118.57;;;616.20;;
37305;SDS011;23193;42.656;21.170;2023-02-15T15:11:52;601.67;;;351.40;;
37305;SDS011;23193;42.656;21.170;2023-02-15T15:16:57;251.80;;;145.70;;
37305;SDS011;23193;42.656;21.170;2023-02-15T15:22:18;324.15;;;187.98;;
37305;SDS011;23193;42.656;21.170;2023-02-15T15:24:46;175.40;;;95.47;;
37305;SDS011;23193;42.656;21.170;2023-02-15T15:29:57;72.65;;;34.75;;
37305;SDS011;23193;42.656;21.170;2023-02-15T15:32:24;91.32;;;39.25;;
37305;SDS011;23193;42.656;21.170;2023-02-15T15:37:45;133.77;;;69.20;;
37305;SDS011;23193;42.656;21.170;2023-02-15T15:40:26;153.13;;;68.28;;
37305;SDS011;23193;42.656;21.170;2023-02-15T15:48:42;104.57;;;45.97;;
37305;SDS011;23193;42.656;21.170;2023-02-15T15:51:14;110.40;;;48.95;;
37305;SDS011;23193;42.656;21.170;2023-02-15T15:53:45;114.05;;;49.70;;
37305;SDS011;23193;42.656;21.170;2023-02-15T15:56:15;112.57;;;45.95;;
37305;SDS011;23193;42.656;21.170;2023-02-15T15:58:47;107.20;;;45.08;;
37305;SDS011;23193;42.656;21.170;2023-02-15T16:01:14;137.82;;;65.32;;
37305;SDS011;23193;42.656;21.170;2023-02-15T16:03:51;128.57;;;65.35;;
37305;SDS011;23193;42.656;21.170;2023-02-15T16:06:31;118.22;;;54.35;;
37305;SDS011;23193;42.656;21.170;2023-02-15T16:09:08;130.05;;;59.30;;
37305;SDS011;23193;42.656;21.170;2023-02-15T16:11:34;161.70;;;65.63;;
37305;SDS011;23193;42.656;21.170;2023-02-15T16:14:07;110.57;;;45.70;;
37305;SDS011;23193;42.656;21.170;2023-02-15T16:16:34;97.40;;;49.17;;
37305;SDS011;23193;42.656;21.170;2023-02-15T16:19:00;96.30;;;47.95;;
37305;SDS011;23193;42.656;21.170;2023-02-15T16:21:27;109.15;;;57.78;;
37305;SDS011;23193;42.656;21.170;2023-02-15T16:29:18;111.18;;;46.78;;
37305;SDS011;23193;42.656;21.170;2023-02-15T16:31:58;103.63;;;48.75;;
37305;SDS011;23193;42.656;21.170;2023-02-15T16:34:24;94.03;;;47.30;;
37305;SDS011;23193;42.656;21.170;2023-02-15T16:37:11;114.70;;;49.72;;
37305;SDS011;23193;42.656;21.170;2023-02-15T16:39:40;141.57;;;62.00;;
37305;SDS011;23193;42.656;21.170;2023-02-15T16:42:06;177.85;;;74.35;;
37305;SDS011;23193;42.656;21.170;2023-02-15T16:44:33;137.30;;;60.33;;
37305;SDS011;23193;42.656;21.170;2023-02-15T16:46:59;131.48;;;54.30;;
37305;SDS011;23193;42.656;21.170;2023-02-15T16:49:26;130.93;;;56.97;;
37305;SDS011;23193;42.656;21.170;2023-02-15T16:51:54;168.43;;;72.28;;
37305;SDS011;23193;42.656;21.170;2023-02-15T16:54:21;163.77;;;75.57;;
37305;SDS011;23193;42.656;21.170;2023-02-15T16:56:48;198.10;;;98.65;;
37305;SDS011;23193;42.656;21.170;2023-02-15T16:59:28;167.82;;;68.30;;
37305;SDS011;23193;42.656;21.170;2023-02-15T17:06:56;209.65;;;93.78;;
37305;SDS011;23193;42.656;21.170;2023-02-15T17:09:23;269.63;;;114.55;;
37305;SDS011;23193;42.656;21.170;2023-02-15T17:11:50;329.40;;;142.43;;
37305;SDS011;23193;42.656;21.170;2023-02-15T17:14:20;249.40;;;111.57;;
37305;SDS011;23193;42.656;21.170;2023-02-15T17:16:53;260.60;;;113.10;;